Time;durP1;ratioP1;P1;durP2;ratioP2;P2;SDS_P1;SDS_P2;PMS_P1;PMS_P2;Temp;Humidity;BMP_temperature;BMP_pressure;BME280_temperature;BME280_humidity;BME280_pressure;Samples;Min_cycle;Max_cycle;Signal;HPM_P1;HPM_P2
2023/02/25 00:00:18;;;;;;;13.23;5.72;;;4.70;99.90;;;;;;5087332;28;20128;-53
2023/02/25 00:02:45;;;;;;;15.02;4.78;;;4.70;99.90;;;;;;5052734;28;20493;-50
2023/02/25 00:05:11;;;;;;;8.65;4.35;;;4.70;99.90;;;;;;5070089;28;20020;-66
2023/02/25 00:07:37;;;;;;;8.85;3.72;;;4.70;99.90;;;;;;5086026;28;20591;-68
2023/02/25 00:10:03;;;;;;;14.18;4.28;;;4.70;99.90;;;;;;5068568;28;20512;-67
2023/02/25 00:12:29;;;;;;;13.15;3.80;;;4.70;99.90;;;;;;5074117;28;20055;-68
2023/02/25 00:14:55;;;;;;;9.35;3.70;;;4.70;99.90;;;;;;5087057;28;20032;-68
2023/02/25 00:17:21;;;;;;;8.65;2.67;;;4.70;99.90;;;;;;5066246;28;20041;-69
2023/02/25 00:19:46;;;;;;;9.88;3.17;;;4.60;99.90;;;;;;5087109;28;20117;-67
2023/02/25 00:22:12;;;;;;;7.38;2.50;;;4.60;99.90;;;;;;5066388;28;20411;-69
2023/02/25 00:24:37;;;;;;;10.35;2.35;;;4.60;99.90;;;;;;5086886;28;20016;-68
2023/02/25 00:27:03;;;;;;;8.00;2.30;;;4.50;99.90;;;;;;5068180;28;20029;-68
2023/02/25 00:29:29;;;;;;;4.60;2.03;;;4.50;99.90;;;;;;5067435;28;20044;-69
2023/02/25 00:31:54;;;;;;;8.65;1.85;;;4.40;99.90;;;;;;5060788;28;20021;-68
2023/02/25 00:34:20;;;;;;;4.57;1.63;;;4.40;99.90;;;;;;5061957;28;20048;-68
2023/02/25 00:36:46;;;;;;;2.55;1.27;;;4.30;99.90;;;;;;5067086;28;20107;-68
2023/02/25 00:39:12;;;;;;;5.75;1.00;;;4.30;99.90;;;;;;5064141;28;20036;-68
2023/02/25 00:41:38;;;;;;;3.40;1.13;;;4.20;99.90;;;;;;5075252;28;20036;-68
2023/02/25 00:44:04;;;;;;;4.25;0.90;;;4.10;99.90;;;;;;5057215;28;20033;-68
2023/02/25 00:46:31;;;;;;;3.35;1.25;;;4.10;99.90;;;;;;5073510;28;20124;-69
2023/02/25 00:48:57;;;;;;;4.07;1.13;;;4.10;99.90;;;;;;5057509;28;20029;-68
2023/02/25 00:51:26;;;;;;;4.10;1.00;;;4.10;99.90;;;;;;5063375;28;20075;-69
2023/02/25 00:53:53;;;;;;;1.98;0.80;;;4.10;99.90;;;;;;5059709;28;20040;-69
2023/02/25 00:56:18;;;;;;;2.25;1.35;;;4.00;99.90;;;;;;5066643;28;20028;-68
2023/02/25 00:58:46;;;;;;;3.00;1.17;;;4.00;99.90;;;;;;5078561;28;20036;-68
2023/02/25 01:01:39;;;;;;;4.72;1.30;;;4.00;99.90;;;;;;5077939;28;20071;-68
2023/02/25 01:04:06;;;;;;;0.95;0.73;;;3.90;99.90;;;;;;5059500;28;20040;-66
2023/02/25 01:06:32;;;;;;;1.48;0.65;;;3.90;99.90;;;;;;5066959;28;20028;-69
2023/02/25 01:08:59;;;;;;;2.75;0.60;;;3.90;99.90;;;;;;5073650;28;20186;-68
2023/02/25 01:11:30;;;;;;;1.55;0.52;;;3.90;99.90;;;;;;5065330;28;20046;-68
2023/02/25 01:13:57;;;;;;;2.10;0.73;;;3.80;99.90;;;;;;5062599;28;20036;-68
2023/02/25 01:16:25;;;;;;;1.10;0.40;;;3.80;99.90;;;;;;5069711;28;20476;-68
2023/02/25 01:18:55;;;;;;;4.03;1.00;;;3.80;99.90;;;;;;5060027;28;20040;-67
2023/02/25 01:21:24;;;;;;;0.80;0.60;;;3.80;99.90;;;;;;5084029;28;20032;-68
2023/02/25 01:23:57;;;;;;;1.63;0.50;;;3.80;99.90;;;;;;5076947;28;20135;-68
2023/02/25 01:26:25;;;;;;;2.35;0.60;;;3.80;99.90;;;;;;5074091;28;20119;-68
2023/02/25 01:28:51;;;;;;;0.70;0.68;;;3.80;99.90;;;;;;5081506;28;20024;-68
2023/02/25 01:31:18;;;;;;;0.93;0.50;;;3.70;99.90;;;;;;5075949;28;20506;-68
2023/02/25 01:33:44;;;;;;;2.00;0.43;;;3.70;99.90;;;;;;5073065;28;20232;-67
2023/02/25 01:36:09;;;;;;;1.27;0.60;;;3.70;99.90;;;;;;5076062;28;20028;-67
2023/02/25 01:38:35;;;;;;;1.52;0.80;;;3.70;99.90;;;;;;5077112;28;20036;-68
2023/02/25 01:41:01;;;;;;;1.60;0.80;;;3.60;99.90;;;;;;5076948;28;20115;-68
2023/02/25 01:43:27;;;;;;;1.38;0.63;;;3.60;99.90;;;;;;5077287;28;20036;-68
2023/02/25 01:45:53;;;;;;;0.63;0.60;;;3.60;99.90;;;;;;5074094;28;20598;-68
2023/02/25 01:48:23;;;;;;;2.97;0.80;;;3.50;99.90;;;;;;5073988;28;20032;-68
2023/02/25 01:50:54;;;;;;;1.63;0.70;;;3.50;99.90;;;;;;5073872;28;20440;-68
2023/02/25 01:53:27;;;;;;;3.22;0.80;;;3.50;99.90;;;;;;5068199;28;20464;-68
2023/02/25 01:55:54;;;;;;;1.92;0.65;;;3.50;99.90;;;;;;5085984;28;20036;-69
2023/02/25 01:58:20;;;;;;;1.30;0.80;;;3.50;99.90;;;;;;5062789;28;20063;-67
2023/02/25 02:00:46;;;;;;;2.75;0.90;;;3.50;99.90;;;;;;5078079;28;20020;-67
2023/02/25 02:03:15;;;;;;;2.17;0.95;;;3.50;99.90;;;;;;5059001;28;20103;-67
2023/02/25 02:06:26;;;;;;;2.78;0.95;;;3.50;99.90;;;;;;5079827;28;20037;-67
2023/02/25 02:08:53;;;;;;;2.08;1.33;;;3.50;99.90;;;;;;5040552;28;20040;-67
2023/02/25 02:11:18;;;;;;;1.25;0.80;;;3.50;99.90;;;;;;5053951;28;20120;-67
2023/02/25 02:13:50;;;;;;;2.30;1.00;;;3.50;99.90;;;;;;5075479;28;20563;-68
2023/02/25 02:16:56;;;;;;;1.35;0.95;;;3.50;99.90;;;;;;5069116;28;20085;-67
2023/02/25 02:19:42;;;;;;;2.72;1.15;;;3.60;99.90;;;;;;5056040;28;20441;-67
2023/02/25 02:22:23;;;;;;;2.60;0.98;;;3.60;99.90;;;;;;5074867;28;20028;-69
2023/02/25 02:25:23;;;;;;;2.20;1.70;;;3.60;99.90;;;;;;5065276;28;20052;-67
2023/02/25 02:28:33;;;;;;;6.35;1.30;;;3.60;99.90;;;;;;5057557;28;20037;-67
2023/02/25 02:31:36;;;;;;;3.75;1.00;;;3.60;99.90;;;;;;5063791;28;20040;-67
2023/02/25 02:34:31;;;;;;;2.00;1.27;;;3.70;99.90;;;;;;5054055;28;20380;-67
2023/02/25 02:37:15;;;;;;;7.68;1.20;;;3.70;99.90;;;;;;5065482;28;20043;-67
2023/02/25 02:40:14;;;;;;;2.83;1.10;;;3.70;99.90;;;;;;5056633;28;20041;-67
2023/02/25 02:42:53;;;;;;;2.88;1.30;;;3.70;99.90;;;;;;5063051;28;20029;-67
2023/02/25 02:45:33;;;;;;;3.40;1.17;;;3.70;99.90;;;;;;5072570;28;20024;-67
2023/02/25 02:48:02;;;;;;;3.83;1.05;;;3.70;99.90;;;;;;5086565;28;20028;-67
2023/02/25 02:50:32;;;;;;;3.92;1.30;;;3.80;99.90;;;;;;5069319;28;20101;-68
2023/02/25 02:53:06;;;;;;;3.80;1.10;;;3.80;99.90;;;;;;5070329;28;20492;-68
2023/02/25 02:55:45;;;;;;;4.72;1.48;;;3.80;99.90;;;;;;5049309;28;20029;-68
2023/02/25 02:58:31;;;;;;;3.40;1.20;;;3.80;99.90;;;;;;5067063;28;20130;-68
2023/02/25 03:01:28;;;;;;;2.35;1.10;;;3.80;99.90;;;;;;5048377;28;20366;-68
2023/02/25 03:04:10;;;;;;;2.97;2.20;;;3.80;99.90;;;;;;5088539;28;20028;-68
2023/02/25 03:06:40;;;;;;;2.05;1.20;;;3.80;99.90;;;;;;5052192;28;20058;-68
2023/02/25 03:09:11;;;;;;;2.47;1.48;;;3.80;99.90;;;;;;5089390;28;20035;-68
2023/02/25 03:11:36;;;;;;;1.77;1.00;;;3.80;99.90;;;;;;5068464;28;20051;-68
2023/02/25 03:14:02;;;;;;;1.38;1.23;;;3.80;99.90;;;;;;5069001;28;20066;-69
2023/02/25 03:16:41;;;;;;;1.70;1.10;;;3.90;99.90;;;;;;5086265;28;20035;-57
2023/02/25 03:19:47;;;;;;;2.80;1.05;;;3.90;99.90;;;;;;5048825;28;20052;-56
2023/02/25 03:22:18;;;;;;;1.40;1.20;;;3.90;99.90;;;;;;5051204;28;20556;-55
2023/02/25 03:24:54;;;;;;;2.30;1.10;;;3.90;99.90;;;;;;5049103;28;20028;-53
2023/02/25 03:27:22;;;;;;;1.92;1.40;;;3.90;99.90;;;;;;5063209;28;20028;-57
2023/02/25 03:29:48;;;;;;;1.23;1.10;;;3.90;99.90;;;;;;5089010;28;20031;-56
2023/02/25 03:32:15;;;;;;;0.90;0.85;;;3.90;99.90;;;;;;5051726;28;20025;-55
2023/02/25 03:34:47;;;;;;;1.20;1.10;;;3.90;99.90;;;;;;5067902;28;20036;-56
2023/02/25 03:37:22;;;;;;;1.60;1.38;;;3.90;99.90;;;;;;5062214;28;20535;-53
2023/02/25 03:39:54;;;;;;;1.48;1.27;;;3.90;99.90;;;;;;5048483;28;20260;-56
2023/02/25 03:42:31;;;;;;;2.00;1.30;;;3.90;99.90;;;;;;5063138;28;20104;-56
2023/02/25 03:45:00;;;;;;;4.32;1.50;;;3.80;99.90;;;;;;5048575;28;20033;-56
2023/02/25 03:47:28;;;;;;;1.48;1.30;;;3.80;99.90;;;;;;5068843;28;20131;-57
2023/02/25 03:50:02;;;;;;;1.92;1.50;;;3.80;99.90;;;;;;5088451;28;20024;-56
2023/02/25 03:52:28;;;;;;;1.58;1.48;;;3.80;99.90;;;;;;5064374;28;20066;-56
2023/02/25 03:54:56;;;;;;;1.50;1.30;;;3.80;99.90;;;;;;5087915;28;20032;-57
2023/02/25 03:57:23;;;;;;;1.33;1.23;;;3.80;99.90;;;;;;5049915;28;20548;-56
2023/02/25 03:59:55;;;;;;;1.55;1.40;;;3.70;99.90;;;;;;5067914;28;20037;-56
2023/02/25 04:02:31;;;;;;;1.42;1.25;;;3.70;99.90;;;;;;5063119;28;20036;-55
2023/02/25 04:04:57;;;;;;;1.30;1.20;;;3.70;99.90;;;;;;5051212;28;20115;-55
2023/02/25 04:07:23;;;;;;;1.42;1.33;;;3.70;99.90;;;;;;5073137;28;20021;-55
2023/02/25 04:09:49;;;;;;;2.85;1.98;;;3.70;99.90;;;;;;5088104;28;20036;-57
2023/02/25 04:12:14;;;;;;;2.65;1.50;;;3.70;99.90;;;;;;5051113;28;20084;-56
2023/02/25 04:14:40;;;;;;;1.42;1.33;;;3.70;99.90;;;;;;5067080;28;20103;-57
2023/02/25 04:17:06;;;;;;;4.40;1.52;;;3.70;99.90;;;;;;5071081;28;20507;-57
2023/02/25 04:19:31;;;;;;;2.55;1.55;;;3.70;99.90;;;;;;5087374;28;20110;-58
2023/02/25 04:21:59;;;;;;;1.65;1.50;;;3.70;99.90;;;;;;5053660;28;20051;-56
2023/02/25 04:24:25;;;;;;;2.10;1.60;;;3.70;99.90;;;;;;5067327;28;20036;-56
2023/02/25 04:26:57;;;;;;;1.30;1.20;;;3.80;99.90;;;;;;5077061;28;20030;-58
2023/02/25 04:29:25;;;;;;;1.75;1.02;;;3.70;99.90;;;;;;5088098;28;20023;-57
2023/02/25 04:31:51;;;;;;;1.75;1.13;;;3.80;99.90;;;;;;5066065;28;20040;-56
2023/02/25 04:34:17;;;;;;;1.15;1.05;;;3.70;99.90;;;;;;5067808;28;20074;-57
2023/02/25 04:36:45;;;;;;;1.20;1.02;;;3.70;99.90;;;;;;5085227;28;20023;-57
2023/02/25 04:39:12;;;;;;;0.88;0.85;;;3.70;99.90;;;;;;5088154;28;20099;-57
2023/02/25 04:41:38;;;;;;;1.00;0.90;;;3.70;99.90;;;;;;5066053;28;20112;-57
2023/02/25 04:44:05;;;;;;;1.17;0.93;;;3.70;99.90;;;;;;5067691;28;20116;-56
2023/02/25 04:46:37;;;;;;;1.13;0.80;;;3.70;99.90;;;;;;5085697;28;20039;-57
2023/02/25 04:49:04;;;;;;;1.95;0.90;;;3.60;99.90;;;;;;5087917;28;20141;-56
2023/02/25 04:51:30;;;;;;;1.15;1.02;;;3.60;99.90;;;;;;5067766;28;20029;-56
2023/02/25 04:53:55;;;;;;;0.60;0.60;;;3.60;99.90;;;;;;5074599;28;20035;-56
2023/02/25 04:56:21;;;;;;;0.77;0.77;;;3.60;99.90;;;;;;5091766;28;20488;-56
2023/02/25 04:58:47;;;;;;;0.95;0.90;;;3.60;99.90;;;;;;5094867;28;20020;-54
2023/02/25 05:01:13;;;;;;;0.70;0.70;;;3.60;99.90;;;;;;5072585;28;20032;-57
2023/02/25 05:03:39;;;;;;;1.23;0.88;;;3.60;99.90;;;;;;5074222;28;20029;-57
2023/02/25 05:06:06;;;;;;;0.80;0.80;;;3.60;99.90;;;;;;5087024;28;20020;-57
2023/02/25 05:08:32;;;;;;;1.00;0.70;;;3.60;99.90;;;;;;5093911;28;20044;-57
2023/02/25 05:10:59;;;;;;;0.70;0.50;;;3.60;99.90;;;;;;5074588;28;20031;-55
2023/02/25 05:13:25;;;;;;;1.17;0.60;;;3.60;99.90;;;;;;5072698;28;20526;-54
2023/02/25 05:15:51;;;;;;;0.50;0.50;;;3.50;99.90;;;;;;5093669;28;20024;-56
2023/02/25 05:18:16;;;;;;;0.60;0.60;;;3.50;99.90;;;;;;5055108;28;20104;-57
2023/02/25 05:20:44;;;;;;;0.50;0.50;;;3.50;99.90;;;;;;5073248;28;20029;-54
2023/02/25 05:23:10;;;;;;;0.50;0.50;;;3.50;99.90;;;;;;5074670;28;20108;-53
2023/02/25 05:25:40;;;;;;;0.88;0.80;;;3.50;99.90;;;;;;5092575;28;20213;-56
2023/02/25 05:28:11;;;;;;;1.35;0.50;;;3.50;99.90;;;;;;5055816;28;20029;-56
2023/02/25 05:30:38;;;;;;;0.93;0.80;;;3.50;99.90;;;;;;5054131;28;20525;-57
2023/02/25 05:33:05;;;;;;;0.47;0.47;;;3.50;99.90;;;;;;5075300;28;20032;-54
2023/02/25 05:35:31;;;;;;;0.47;0.47;;;3.50;99.90;;;;;;5093689;28;20052;-57
2023/02/25 05:37:57;;;;;;;0.45;0.45;;;3.50;99.90;;;;;;5057291;28;20504;-57
2023/02/25 05:40:23;;;;;;;0.50;0.40;;;3.50;99.90;;;;;;5073438;28;20035;-57
2023/02/25 05:42:48;;;;;;;0.50;0.50;;;3.50;99.90;;;;;;5077097;28;20045;-57
2023/02/25 05:45:14;;;;;;;0.68;0.60;;;3.50;99.90;;;;;;5093687;28;20123;-58
2023/02/25 05:47:40;;;;;;;1.17;0.65;;;3.50;99.90;;;;;;5059519;28;20033;-57
2023/02/25 05:50:06;;;;;;;0.50;0.50;;;3.50;99.90;;;;;;5073058;28;20119;-56
2023/02/25 05:52:32;;;;;;;1.00;0.85;;;3.50;99.90;;;;;;5079995;28;20585;-56
2023/02/25 05:54:57;;;;;;;0.40;0.40;;;3.40;99.90;;;;;;5093220;28;20032;-56
2023/02/25 05:57:22;;;;;;;0.50;0.50;;;3.50;99.90;;;;;;5072888;28;20029;-57
2023/02/25 05:59:49;;;;;;;0.60;0.60;;;3.40;99.90;;;;;;5093413;28;20240;-56
2023/02/25 06:02:14;;;;;;;0.40;0.40;;;3.40;99.90;;;;;;5072691;28;20036;-56
2023/02/25 06:04:40;;;;;;;0.40;0.40;;;3.40;99.90;;;;;;5085413;28;20721;-56
2023/02/25 06:07:05;;;;;;;0.40;0.40;;;3.40;99.90;;;;;;5064909;28;20070;-56
2023/02/25 06:09:33;;;;;;;0.50;0.50;;;3.40;99.90;;;;;;5070773;28;20039;-68
2023/02/25 06:11:59;;;;;;;0.40;0.40;;;3.40;99.90;;;;;;5088198;28;20074;-58
2023/02/25 06:14:25;;;;;;;0.63;0.50;;;3.30;99.90;;;;;;5090838;28;20391;-58
2023/02/25 06:16:55;;;;;;;0.40;0.40;;;3.30;99.90;;;;;;5068606;28;20045;-58
2023/02/25 06:19:22;;;;;;;0.70;0.70;;;3.30;99.90;;;;;;5070122;28;20048;-58
2023/02/25 06:21:47;;;;;;;0.40;0.40;;;3.30;99.90;;;;;;5088239;28;20058;-57
2023/02/25 06:24:15;;;;;;;0.30;0.30;;;3.30;99.90;;;;;;5090393;28;20028;-58
2023/02/25 06:26:41;;;;;;;0.98;0.50;;;3.30;99.90;;;;;;5068481;28;20103;-58
2023/02/25 06:29:08;;;;;;;0.52;0.47;;;3.30;99.90;;;;;;5070371;28;20646;-58
2023/02/25 06:31:34;;;;;;;0.80;0.50;;;3.20;99.90;;;;;;5087647;28;20027;-58
2023/02/25 06:33:59;;;;;;;0.73;0.45;;;3.20;99.90;;;;;;5090533;28;20483;-57
2023/02/25 06:36:25;;;;;;;0.40;0.40;;;3.20;99.90;;;;;;5068501;28;20032;-58
2023/02/25 06:38:50;;;;;;;0.52;0.52;;;3.20;99.90;;;;;;5069844;28;20024;-58
2023/02/25 06:41:18;;;;;;;0.57;0.57;;;3.20;99.90;;;;;;5087534;28;20376;-58
2023/02/25 06:43:45;;;;;;;0.30;0.30;;;3.20;99.90;;;;;;5090176;28;20125;-57
2023/02/25 06:46:13;;;;;;;1.48;0.40;;;3.20;99.90;;;;;;5068255;28;20066;-57
2023/02/25 06:48:39;;;;;;;1.58;0.52;;;3.20;99.90;;;;;;5070205;28;20028;-57
2023/02/25 06:51:10;;;;;;;0.32;0.32;;;3.20;99.90;;;;;;5089121;28;20110;-58
2023/02/25 06:53:37;;;;;;;0.30;0.28;;;3.20;99.90;;;;;;5089772;28;20331;-54
2023/02/25 06:56:03;;;;;;;0.20;0.20;;;3.30;99.90;;;;;;5070013;28;20028;-58
2023/02/25 06:58:29;;;;;;;0.40;0.40;;;3.30;99.90;;;;;;5067563;28;20508;-58
2023/02/25 07:00:54;;;;;;;1.85;0.20;;;3.30;99.90;;;;;;5089158;28;20081;-58
2023/02/25 07:03:20;;;;;;;0.30;0.30;;;3.30;99.90;;;;;;5049637;28;20033;-58
2023/02/25 07:05:45;;;;;;;0.38;0.22;;;3.40;99.90;;;;;;5060113;28;20016;-57
2023/02/25 07:08:11;;;;;;;0.30;0.30;;;3.40;99.90;;;;;;5080199;28;20385;-58
2023/02/25 07:10:39;;;;;;;0.22;0.22;;;3.40;99.90;;;;;;5055867;28;20119;-58
2023/02/25 07:13:05;;;;;;;0.68;0.30;;;3.40;99.90;;;;;;5068120;28;20020;-58
2023/02/25 07:15:30;;;;;;;0.20;0.20;;;3.40;99.90;;;;;;5062123;28;20035;-52
2023/02/25 07:17:56;;;;;;;1.02;0.35;;;3.40;99.90;;;;;;5059560;28;20169;-50
2023/02/25 07:20:21;;;;;;;0.50;0.50;;;3.40;99.90;;;;;;5067233;28;20032;-54
2023/02/25 07:22:47;;;;;;;0.38;0.30;;;3.40;99.90;;;;;;5071832;28;20028;-55
2023/02/25 07:25:13;;;;;;;0.35;0.25;;;3.40;99.90;;;;;;5067001;28;20391;-54
2023/02/25 07:27:40;;;;;;;0.63;0.30;;;3.40;99.90;;;;;;5085556;28;20050;-53
2023/02/25 07:30:06;;;;;;;0.80;0.40;;;3.40;99.90;;;;;;5063318;28;20056;-50
2023/02/25 07:32:31;;;;;;;1.00;0.50;;;3.40;99.90;;;;;;5051865;28;20083;-54
2023/02/25 07:34:57;;;;;;;0.30;0.30;;;3.40;99.90;;;;;;5069888;28;20290;-54
2023/02/25 07:37:22;;;;;;;0.20;0.20;;;3.40;99.90;;;;;;5085931;28;20028;-52
2023/02/25 07:39:48;;;;;;;0.25;0.25;;;3.40;99.90;;;;;;5053339;28;20029;-54
2023/02/25 07:42:13;;;;;;;0.30;0.30;;;3.40;99.90;;;;;;5066010;28;20072;-48
2023/02/25 07:44:39;;;;;;;0.20;0.20;;;3.50;99.90;;;;;;5083420;28;20089;-53
2023/02/25 07:47:05;;;;;;;0.30;0.30;;;3.40;99.90;;;;;;5063135;28;20443;-53
2023/02/25 07:49:30;;;;;;;0.68;0.30;;;3.50;99.90;;;;;;5070036;28;20141;-53
2023/02/25 07:51:55;;;;;;;0.88;0.20;;;3.50;99.90;;;;;;5056303;28;20355;-54
2023/02/25 07:54:21;;;;;;;0.25;0.25;;;3.60;99.90;;;;;;5066628;28;20468;-53
2023/02/25 07:56:50;;;;;;;0.20;0.20;;;3.60;99.90;;;;;;5081111;28;20035;-57
2023/02/25 07:59:16;;;;;;;0.17;0.17;;;3.60;99.90;;;;;;5066115;28;20028;-53
2023/02/25 08:01:43;;;;;;;0.28;0.20;;;3.60;99.90;;;;;;5078968;28;20034;-54
2023/02/25 08:04:09;;;;;;;1.40;0.50;;;3.70;99.90;;;;;;5073165;28;20020;-54
2023/02/25 08:06:36;;;;;;;0.70;0.17;;;3.70;99.90;;;;;;5063227;28;20036;-51
2023/02/25 08:09:04;;;;;;;0.30;0.20;;;3.80;99.90;;;;;;5086505;28;20050;-53
2023/02/25 08:11:30;;;;;;;0.20;0.20;;;4.00;99.90;;;;;;5057730;28;20045;-51
2023/02/25 08:13:57;;;;;;;0.10;0.10;;;4.00;99.90;;;;;;5071292;28;20044;-53
2023/02/25 08:16:23;;;;;;;0.17;0.10;;;4.10;99.90;;;;;;5085807;28;20110;-53
2023/02/25 08:18:48;;;;;;;0.20;0.20;;;4.10;99.90;;;;;;5078258;28;20036;-54
2023/02/25 08:21:22;;;;;;;0.30;0.30;;;4.20;99.90;;;;;;5065509;28;20028;-53
2023/02/25 08:23:48;;;;;;;0.20;0.20;;;4.30;99.90;;;;;;5064055;28;20069;-54
2023/02/25 08:26:17;;;;;;;0.10;0.10;;;4.40;99.90;;;;;;5066918;28;20039;-54
2023/02/25 08:28:44;;;;;;;0.20;0.20;;;4.60;99.90;;;;;;5085316;28;20055;-54
2023/02/25 08:31:11;;;;;;;0.30;0.20;;;4.70;99.90;;;;;;5082092;28;20123;-52
2023/02/25 08:33:42;;;;;;;0.10;0.10;;;4.80;99.90;;;;;;5067295;28;20020;-53
2023/02/25 08:36:12;;;;;;;0.50;0.35;;;4.80;99.90;;;;;;5061648;28;20568;-54
2023/02/25 08:38:37;;;;;;;0.22;0.22;;;4.80;99.90;;;;;;5077942;28;20066;-54
2023/02/25 08:41:04;;;;;;;1.65;0.20;;;4.70;99.90;;;;;;5084636;28;20450;-52
2023/02/25 08:43:30;;;;;;;0.22;0.20;;;4.70;99.90;;;;;;5085923;28;20055;-51
2023/02/25 08:45:56;;;;;;;0.20;0.20;;;4.80;99.90;;;;;;5065475;28;20021;-53
2023/02/25 08:48:22;;;;;;;0.10;0.10;;;4.80;99.90;;;;;;5065381;28;20500;-52
2023/02/25 08:50:47;;;;;;;0.28;0.25;;;4.80;99.90;;;;;;5065781;28;20067;-52
2023/02/25 08:53:13;;;;;;;0.30;0.30;;;4.80;99.90;;;;;;5087434;28;20028;-54
2023/02/25 08:55:38;;;;;;;0.80;0.30;;;4.70;99.90;;;;;;5066025;28;20055;-55
2023/02/25 08:58:04;;;;;;;0.35;0.20;;;4.60;99.90;;;;;;5080250;28;20032;-53
2023/02/25 09:00:30;;;;;;;1.55;0.13;;;4.60;99.90;;;;;;5072634;28;20111;-49
2023/02/25 09:02:56;;;;;;;0.10;0.10;;;4.60;99.90;;;;;;5052963;28;20100;-52
2023/02/25 09:05:23;;;;;;;1.08;0.20;;;4.50;99.90;;;;;;5073882;28;20016;-52
2023/02/25 09:07:49;;;;;;;0.90;0.68;;;4.50;99.90;;;;;;5078287;28;20101;-53
2023/02/25 09:10:14;;;;;;;0.82;0.38;;;4.50;99.90;;;;;;5087886;28;20063;-51
2023/02/25 09:12:41;;;;;;;0.20;0.20;;;4.50;99.90;;;;;;5066231;28;20056;-50
2023/02/25 09:15:08;;;;;;;2.70;1.88;;;4.50;99.90;;;;;;5086864;28;20528;-51
2023/02/25 09:17:34;;;;;;;1.38;1.25;;;4.40;99.90;;;;;;5065671;28;20045;-52
2023/02/25 09:20:00;;;;;;;0.70;0.70;;;4.40;99.90;;;;;;5087253;28;20130;-53
2023/02/25 09:22:26;;;;;;;0.40;0.40;;;4.20;99.90;;;;;;5065514;28;20089;-53
2023/02/25 09:24:52;;;;;;;0.50;0.50;;;4.30;99.90;;;;;;5086946;28;20047;-52
2023/02/25 09:27:17;;;;;;;0.40;0.40;;;4.30;99.90;;;;;;5066078;28;20488;-55
2023/02/25 09:29:43;;;;;;;0.30;0.30;;;4.30;99.90;;;;;;5067267;28;20302;-53
2023/02/25 09:32:18;;;;;;;0.20;0.20;;;4.40;99.90;;;;;;5084690;28;20175;-52
2023/02/25 09:34:44;;;;;;;0.15;0.10;;;4.40;99.90;;;;;;5087375;28;20507;-54
2023/02/25 09:37:12;;;;;;;0.17;0.17;;;4.40;99.90;;;;;;5064588;28;20134;-55
2023/02/25 09:39:37;;;;;;;0.30;0.30;;;4.50;99.90;;;;;;5091518;28;20097;-53
2023/02/25 09:42:09;;;;;;;0.20;0.17;;;4.60;99.90;;;;;;5052547;28;20053;-55
2023/02/25 09:44:58;;;;;;;0.35;0.30;;;4.70;99.90;;;;;;5070676;28;20024;-54
2023/02/25 09:47:40;;;;;;;0.30;0.30;;;4.60;98.30;;;;;;5069016;28;20028;-55
2023/02/25 09:50:35;;;;;;;0.98;0.40;;;4.60;97.60;;;;;;5051291;28;20031;-52
2023/02/25 09:53:20;;;;;;;0.30;0.30;;;4.70;99.80;;;;;;5090666;28;20048;-51
2023/02/25 09:55:52;;;;;;;1.80;0.43;;;4.70;99.60;;;;;;5062296;28;20350;-53
2023/02/25 09:58:39;;;;;;;0.38;0.30;;;4.90;99.90;;;;;;5091288;28;20024;-55
2023/02/25 10:01:10;;;;;;;0.28;0.20;;;4.90;99.90;;;;;;5067123;28;20111;-53
2023/02/25 10:04:05;;;;;;;0.63;0.30;;;5.00;98.90;;;;;;5071341;28;20029;-54
2023/02/25 10:06:37;;;;;;;0.10;0.10;;;5.00;99.10;;;;;;5058452;28;20380;-54
2023/02/25 10:09:32;;;;;;;0.50;0.20;;;5.00;99.40;;;;;;5090602;28;20063;-55
2023/02/25 10:12:09;;;;;;;0.60;0.20;;;5.10;99.70;;;;;;5065408;28;20052;-54
2023/02/25 10:14:49;;;;;;;0.30;0.30;;;5.10;99.90;;;;;;5050467;28;20060;-51
2023/02/25 10:17:42;;;;;;;0.17;0.17;;;5.00;97.40;;;;;;5067828;28;20111;-54
2023/02/25 10:20:44;;;;;;;0.65;0.30;;;4.90;98.60;;;;;;5057692;28;20436;-52
2023/02/25 10:23:52;;;;;;;0.30;0.20;;;4.70;99.90;;;;;;5065663;28;20167;-54
2023/02/25 10:26:37;;;;;;;1.30;0.80;;;4.70;98.30;;;;;;5048828;28;20546;-55
2023/02/25 10:29:06;;;;;;;0.33;0.33;;;4.70;99.90;;;;;;5062953;28;20021;-55
2023/02/25 10:31:33;;;;;;;0.68;0.40;;;4.80;99.90;;;;;;5069211;28;20317;-55
2023/02/25 10:34:15;;;;;;;2.85;0.45;;;4.80;99.90;;;;;;5059944;28;20028;-55
2023/02/25 10:36:45;;;;;;;0.47;0.30;;;4.80;99.90;;;;;;5061582;28;20032;-54
2023/02/25 10:39:10;;;;;;;0.40;0.40;;;4.70;99.90;;;;;;5071227;28;20031;-53
2023/02/25 10:41:36;;;;;;;0.30;0.30;;;4.60;99.90;;;;;;5083850;28;20021;-55
2023/02/25 10:44:02;;;;;;;1.45;1.10;;;4.70;99.90;;;;;;5074596;28;20032;-53
2023/02/25 10:46:52;;;;;;;3.58;2.33;;;4.60;99.90;;;;;;5075925;28;20150;-55
2023/02/25 10:49:21;;;;;;;1.33;1.23;;;4.50;99.90;;;;;;5062113;28;20116;-53
2023/02/25 10:52:18;;;;;;;1.20;0.88;;;4.60;99.10;;;;;;5090194;28;20066;-55
2023/02/25 10:54:48;;;;;;;1.10;1.00;;;4.50;99.90;;;;;;5066372;28;20063;-54
2023/02/25 10:57:26;;;;;;;2.28;1.02;;;4.60;99.90;;;;;;5063925;28;20801;-55
2023/02/25 11:00:05;;;;;;;0.65;0.57;;;4.50;99.90;;;;;;5061686;28;20115;-55
2023/02/25 11:02:36;;;;;;;0.52;0.50;;;4.50;99.90;;;;;;5064315;28;20041;-54
2023/02/25 11:05:02;;;;;;;1.00;0.70;;;4.60;99.90;;;;;;5054005;28;20429;-69
2023/02/25 11:07:34;;;;;;;1.33;0.80;;;4.70;99.90;;;;;;5064587;28;20032;-72
2023/02/25 11:10:16;;;;;;;2.10;1.80;;;4.90;99.90;;;;;;5063456;28;20093;-70
2023/02/25 11:12:44;;;;;;;1.00;0.95;;;5.10;99.90;;;;;;5088653;28;20088;-70
2023/02/25 11:15:18;;;;;;;0.80;0.80;;;5.10;98.50;;;;;;5055822;28;20495;-60
2023/02/25 11:17:44;;;;;;;0.50;0.50;;;5.10;97.20;;;;;;5062074;28;20630;-60
2023/02/25 11:20:22;;;;;;;0.40;0.20;;;5.10;97.10;;;;;;5067352;28;20036;-59
2023/02/25 11:22:51;;;;;;;0.52;0.30;;;5.00;92.10;;;;;;5066823;28;20498;-60
2023/02/25 11:25:19;;;;;;;1.45;0.45;;;5.00;93.70;;;;;;5069695;28;20116;-60
2023/02/25 11:27:52;;;;;;;0.20;0.20;;;4.80;91.40;;;;;;5078382;28;20435;-60
2023/02/25 11:30:23;;;;;;;0.30;0.30;;;4.90;93.10;;;;;;5056658;28;20047;-59
2023/02/25 11:32:52;;;;;;;0.20;0.20;;;5.00;94.70;;;;;;5056227;28;20036;-61
2023/02/25 11:35:30;;;;;;;0.30;0.30;;;5.00;93.50;;;;;;5064072;28;20082;-60
2023/02/25 11:37:57;;;;;;;0.60;0.50;;;4.90;93.70;;;;;;5066422;28;20090;-60
2023/02/25 11:40:32;;;;;;;1.45;0.60;;;4.80;94.00;;;;;;5067645;28;20501;-59
2023/02/25 11:43:22;;;;;;;1.40;0.70;;;4.40;93.20;;;;;;5070401;28;20073;-60
2023/02/25 11:45:56;;;;;;;1.17;0.40;;;4.30;95.90;;;;;;5047325;28;20828;-60
2023/02/25 11:48:29;;;;;;;0.52;0.50;;;4.40;94.90;;;;;;5064818;28;20090;-59
2023/02/25 11:50:59;;;;;;;0.73;0.50;;;4.50;95.60;;;;;;5046769;28;20139;-59
2023/02/25 11:53:40;;;;;;;0.60;0.60;;;4.60;93.60;;;;;;5064986;28;20242;-59
2023/02/25 11:56:22;;;;;;;0.43;0.38;;;4.70;94.20;;;;;;5061044;28;20028;-59
2023/02/25 11:58:57;;;;;;;0.88;0.60;;;4.70;92.20;;;;;;5087014;28;20103;-60
2023/02/25 12:01:44;;;;;;;0.38;0.38;;;4.80;92.00;;;;;;5065442;28;20020;-60
2023/02/25 12:05:05;;;;;;;0.35;0.30;;;4.70;91.10;;;;;;5068207;28;20438;-60
2023/02/25 12:08:12;;;;;;;0.10;0.10;;;4.00;97.10;;;;;;5015662;28;20055;-60
2023/02/25 12:10:57;;;;;;;0.20;0.20;;;3.50;99.90;;;;;;4986159;28;20078;-60
2023/02/25 12:13:30;;;;;;;0.68;0.68;;;3.30;99.90;;;;;;5064737;28;20322;-57
2023/02/25 12:16:12;;;;;;;1.23;0.75;;;3.40;99.90;;;;;;5047890;28;20112;-54
2023/02/25 12:19:09;;;;;;;0.80;0.57;;;3.70;99.90;;;;;;5047018;28;20029;-56
2023/02/25 12:22:13;;;;;;;1.10;0.38;;;3.80;99.90;;;;;;5055576;28;20020;-56
2023/02/25 12:25:11;;;;;;;0.40;0.40;;;4.00;99.90;;;;;;5068437;28;20025;-56
2023/02/25 12:27:51;;;;;;;0.43;0.35;;;4.10;99.90;;;;;;5061116;28;20028;-56
2023/02/25 12:30:35;;;;;;;0.55;0.30;;;4.20;99.90;;;;;;5090228;28;20384;-56
2023/02/25 12:33:06;;;;;;;0.30;0.30;;;4.10;99.90;;;;;;5064893;28;20149;-56
2023/02/25 12:35:43;;;;;;;0.40;0.40;;;4.10;99.90;;;;;;5090657;28;20644;-54
2023/02/25 12:38:58;;;;;;;0.50;0.43;;;4.10;99.90;;;;;;5063421;28;20033;-54
2023/02/25 12:41:37;;;;;;;0.73;0.52;;;4.20;99.20;;;;;;5051665;28;20519;-53
2023/02/25 12:44:48;;;;;;;1.88;0.50;;;4.10;98.10;;;;;;5088248;28;20027;-55
2023/02/25 12:47:24;;;;;;;0.73;0.50;;;4.00;98.40;;;;;;5065972;28;20085;-55
2023/02/25 12:50:06;;;;;;;0.50;0.40;;;4.00;99.90;;;;;;5047399;28;20051;-55
2023/02/25 12:53:01;;;;;;;0.70;0.45;;;4.00;99.90;;;;;;5070930;28;20527;-54
2023/02/25 12:55:32;;;;;;;1.63;0.25;;;4.10;99.90;;;;;;5013523;28;20049;-56
2023/02/25 12:58:15;;;;;;;0.32;0.28;;;4.20;99.90;;;;;;5069753;28;20029;-56
2023/02/25 13:00:55;;;;;;;0.52;0.30;;;4.10;98.00;;;;;;5047184;28;20374;-56
2023/02/25 13:03:49;;;;;;;0.30;0.25;;;3.70;94.90;;;;;;5065453;28;20032;-56
2023/02/25 13:06:43;;;;;;;0.65;0.40;;;3.60;95.40;;;;;;5041718;28;20056;-55
2023/02/25 13:09:49;;;;;;;1.00;0.60;;;3.60;97.70;;;;;;5078703;28;20028;-53
2023/02/25 13:12:39;;;;;;;0.50;0.50;;;3.70;98.70;;;;;;5066060;28;20073;-52
2023/02/25 13:15:10;;;;;;;0.47;0.38;;;3.70;95.90;;;;;;5051647;28;20036;-56
2023/02/25 13:18:02;;;;;;;1.50;0.70;;;3.70;96.50;;;;;;5076089;28;20036;-56
2023/02/25 13:21:04;;;;;;;0.80;0.45;;;3.80;94.40;;;;;;5051455;28;20449;-57
2023/02/25 13:23:46;;;;;;;0.52;0.40;;;3.90;94.20;;;;;;5051045;28;20069;-54